createdAt,value
2022-09-09T09:32:42.848Z,1001.28
2022-09-09T09:33:42.825Z,1001.29
2022-09-09T09:34:42.804Z,1001.24
2022-09-09T09:44:14.452Z,1001.33
2022-09-09T09:45:14.442Z,1001.34
2022-09-09T09:46:18.034Z,1001.36
2022-09-09T10:31:47.278Z,1001.34
2022-09-09T10:32:47.254Z,1001.33
2022-09-09T10:42:25.798Z,1001.25
2022-09-09T10:43:25.771Z,1001.24
2022-09-09T10:44:25.754Z,1001.25
2022-09-09T10:45:25.745Z,1001.20
2022-09-09T10:51:00.553Z,1001.19
2022-09-09T10:51:43.279Z,1001.15
2022-09-09T10:52:43.269Z,1001.18
2022-09-09T10:53:43.246Z,1001.18
2022-09-09T10:54:43.228Z,1001.16
2022-09-09T10:55:43.234Z,1001.16
2022-09-09T10:56:43.196Z,1001.17
2022-09-09T10:57:43.195Z,1001.10
2022-09-09T10:58:43.183Z,1001.15
2022-09-09T10:59:43.177Z,1001.11
2022-09-09T11:00:43.150Z,1001.11
2022-09-09T11:01:43.209Z,1001.04
2022-09-09T11:02:43.111Z,1001.01
2022-09-09T11:03:51.052Z,1001.07
2022-09-09T11:04:43.095Z,1001.00
2022-09-09T11:05:43.088Z,1001.05
2022-09-09T11:06:43.119Z,1000.95
2022-09-09T11:07:43.044Z,1001.03
2022-09-09T11:08:43.038Z,1000.94
2022-09-09T11:09:43.031Z,1000.96
2022-09-09T11:13:43.130Z,1000.94
2022-09-09T11:14:43.115Z,1001.00
2022-09-09T11:15:43.104Z,1000.95
2022-09-09T11:16:43.181Z,1001.00
2022-09-09T11:17:43.074Z,1001.03
2022-09-09T11:18:43.059Z,1001.08
2022-09-09T11:19:43.036Z,1001.03
2022-09-09T11:20:43.043Z,1001.04
2022-09-09T11:21:43.022Z,1001.05
2022-09-09T11:22:43.027Z,1001.19
2022-09-09T11:23:42.992Z,1000.96
2022-09-09T11:24:42.976Z,1001.01
2022-09-09T11:28:06.059Z,1001.02
2022-09-09T11:29:06.027Z,1001.11
2022-09-09T11:30:06.035Z,1001.08
2022-09-09T11:31:06.077Z,1001.00
2022-09-09T11:32:05.987Z,1001.02
2022-09-09T11:33:05.986Z,1000.97
2022-09-09T11:34:05.957Z,1000.98
2022-09-09T11:35:05.959Z,1000.98
2022-09-09T11:36:07.868Z,1001.11
2022-09-09T11:37:05.935Z,1001.05
2022-09-09T11:38:05.905Z,1001.07
2022-09-09T11:39:05.889Z,1001.12
2022-09-09T11:40:06.003Z,1001.00
2022-09-09T11:41:05.888Z,1000.95
2022-09-09T11:42:05.858Z,1000.95
2022-09-09T11:43:05.841Z,1001.03
2022-09-09T11:44:05.824Z,1000.95
2022-09-09T11:45:05.817Z,1000.95
2022-09-09T11:46:05.862Z,1001.00
2022-09-09T11:47:05.778Z,1000.99
2022-09-09T11:48:05.775Z,1001.10
2022-09-09T11:49:05.754Z,1001.05
2022-09-09T11:50:05.751Z,1001.07
2022-09-09T11:51:05.748Z,1001.02
2022-09-09T11:52:05.714Z,1000.96
2022-09-09T11:53:05.706Z,1000.95
2022-09-09T11:54:05.699Z,1000.93
2022-09-09T11:55:05.698Z,1001.03
2022-09-09T11:56:05.677Z,1001.00
2022-09-09T11:57:05.653Z,1001.08
2022-09-09T11:58:05.642Z,1000.99
2022-09-09T11:59:05.626Z,1000.93
2022-09-09T12:00:05.684Z,1000.94
2022-09-09T12:01:05.616Z,1000.95
2022-09-09T12:02:05.620Z,1000.99
2022-09-09T12:03:05.578Z,1000.93
2022-09-09T12:04:05.613Z,1000.93
2022-09-09T12:05:05.610Z,1000.88
2022-09-09T12:06:06.003Z,1000.89
2022-09-09T12:07:05.532Z,1000.79
2022-09-09T12:08:05.519Z,1000.88
2022-09-09T12:09:05.505Z,1000.86
2022-09-09T12:10:05.520Z,1000.82
2022-09-09T12:11:05.495Z,1000.89
2022-09-09T12:12:05.460Z,1000.90
2022-09-09T12:13:05.459Z,1000.90
2022-09-09T12:14:05.436Z,1000.84
2022-09-09T12:15:05.429Z,1000.87
2022-09-09T12:16:05.428Z,1000.90
2022-09-09T12:17:05.396Z,1000.86
2022-09-09T12:18:05.386Z,1000.83
2022-09-09T12:19:05.372Z,1000.91
2022-09-09T12:20:05.438Z,1000.91
2022-09-09T12:21:05.366Z,1000.78
2022-09-09T12:22:05.334Z,1000.85
2022-09-09T12:23:05.328Z,1000.89
2022-09-09T12:24:05.317Z,1000.94
2022-09-09T12:25:05.294Z,1000.75
2022-09-09T12:26:05.302Z,1000.75
2022-09-09T12:27:05.278Z,1000.75
2022-09-09T12:28:05.262Z,1000.79
2022-09-09T12:29:05.257Z,1000.78
2022-09-09T12:30:05.288Z,1000.79
2022-09-09T12:31:05.300Z,1000.78
2022-09-09T12:32:05.218Z,1000.81
2022-09-09T12:33:05.206Z,1000.75
2022-09-09T12:34:05.184Z,1000.74
2022-09-09T12:44:22.379Z,1000.75
2022-09-09T12:45:22.351Z,1000.74
2022-09-09T12:46:22.390Z,1000.74
2022-09-09T12:47:23.668Z,1000.72
2022-09-09T12:48:22.312Z,1000.74
2022-09-09T13:44:21.434Z,1000.49
2022-09-09T13:45:21.419Z,1000.52
2022-09-09T13:46:21.399Z,1000.50
2022-09-09T13:47:21.386Z,1000.52
2022-09-09T13:48:21.357Z,1000.51
2022-09-09T13:49:21.348Z,1000.68
2022-09-09T13:50:21.339Z,1000.65
2022-09-09T13:51:21.316Z,1000.58
2022-09-09T13:52:21.302Z,1000.54
2022-09-09T13:53:21.276Z,1000.53
2022-09-09T13:54:21.263Z,1000.49
2022-09-09T13:55:21.256Z,1000.61
2022-09-09T13:56:21.236Z,1000.67
2022-09-09T13:57:21.252Z,1000.55
2022-09-09T13:58:21.210Z,1000.60
2022-09-09T13:59:21.196Z,1000.68
2022-09-09T14:00:21.172Z,1000.51
2022-09-09T14:01:21.209Z,1000.60
2022-09-09T14:02:21.189Z,1000.42
2022-09-09T14:10:39.084Z,1000.32
2022-09-09T14:11:39.043Z,1000.37
2022-09-09T14:12:39.043Z,1000.36
2022-09-09T14:18:30.862Z,1000.63
2022-09-09T14:19:30.790Z,1000.46
2022-09-09T14:22:45.695Z,1000.47
2022-09-09T14:23:45.675Z,1000.46
2022-09-09T14:38:03.967Z,1000.57
2022-09-09T14:39:03.940Z,1000.53
2022-09-09T14:40:03.950Z,1000.60
2022-09-09T14:41:03.922Z,1000.58
2022-09-09T14:42:03.896Z,1000.50
2022-09-09T14:43:03.898Z,1000.50
2022-09-09T14:44:03.878Z,1000.42
2022-09-09T14:45:03.867Z,1000.41
2022-09-09T15:04:10.039Z,1000.33
2022-09-09T15:05:10.006Z,1000.39
2022-09-09T15:06:10.013Z,1000.40
2022-09-09T15:07:09.985Z,1000.37
2022-09-09T15:08:09.956Z,1000.39
2022-09-09T15:09:09.962Z,1000.40
2022-09-09T15:10:09.935Z,1000.42
2022-09-09T15:11:09.931Z,1000.43
2022-09-09T15:12:09.951Z,1000.50
2022-09-09T15:13:09.908Z,1000.47
2022-09-09T15:14:09.883Z,1000.47
2022-09-09T15:18:06.517Z,1000.47
2022-09-09T15:41:27.821Z,1000.51
